createdAt,value
2017-10-11T23:05:01.170Z,83.64
2017-10-11T23:06:01.120Z,83.73
2017-10-11T23:07:53.946Z,83.45
2017-10-11T23:08:53.916Z,84.31
2017-10-11T23:10:46.743Z,85.27
2017-10-11T23:11:46.715Z,84.12
2017-10-11T23:13:40.577Z,85.46
2017-10-11T23:14:40.555Z,84.22
2017-10-11T23:16:34.101Z,84.50
2017-10-11T23:17:34.088Z,84.02
2017-10-11T23:18:34.020Z,84.98
2017-10-11T23:19:34.043Z,84.31
2017-10-11T23:20:33.964Z,83.83
2017-10-11T23:21:34.023Z,85.36
2017-10-11T23:22:33.902Z,85.36
2017-10-11T23:23:33.875Z,84.88
2017-10-11T23:24:33.815Z,84.02
2017-10-11T23:25:33.807Z,84.12
2017-10-11T23:26:33.745Z,84.02
2017-10-11T23:27:33.711Z,84.22
2017-10-11T23:28:33.795Z,84.22
2017-10-11T23:29:33.660Z,85.46
2017-10-11T23:30:33.605Z,85.17
2017-10-11T23:31:33.567Z,84.59
2017-10-11T23:32:33.588Z,84.79
2017-10-11T23:33:33.504Z,84.12
2017-10-11T23:34:33.487Z,84.36
2017-10-11T23:35:33.457Z,84.98
2017-10-11T23:36:33.494Z,84.59
2017-10-11T23:37:33.375Z,84.36
2017-10-11T23:38:33.340Z,83.93
2017-10-11T23:39:33.305Z,85.41
2017-10-11T23:40:33.265Z,85.99
2017-10-11T23:41:33.251Z,85.41
2017-10-11T23:42:33.275Z,84.94
2017-10-11T23:43:33.237Z,85.13
2017-10-11T23:44:33.141Z,85.51
2017-10-11T23:45:33.092Z,84.65
2017-10-11T23:46:33.063Z,85.71
2017-10-11T23:47:33.177Z,85.41
2017-10-11T23:48:32.988Z,85.99
2017-10-11T23:49:32.958Z,85.89
2017-10-11T23:50:35.437Z,86.08
2017-10-11T23:51:32.893Z,85.71
2017-10-11T23:52:32.852Z,85.32
2017-10-11T23:53:32.817Z,85.22
2017-10-11T23:54:32.785Z,86.18
2017-10-11T23:55:32.752Z,86.28
2017-10-11T23:56:32.724Z,86.18
2017-10-11T23:57:32.684Z,85.80
2017-10-11T23:58:32.649Z,85.41
2017-10-11T23:59:32.613Z,86.47
